createdAt,value
2018-01-31T01:53:36.805Z,7.23
2018-01-31T01:56:04.570Z,4.73
2018-01-31T01:58:32.186Z,4.23
2018-01-31T02:00:59.732Z,6.77
2018-01-31T02:03:27.414Z,7.53
2018-01-31T02:05:55.032Z,7.10
2018-01-31T02:08:22.607Z,8.47
2018-01-31T02:10:50.141Z,6.17
2018-01-31T02:13:17.885Z,11.70
2018-01-31T02:15:45.464Z,10.70
2018-01-31T02:18:13.033Z,4.70
2018-01-31T02:20:40.550Z,6.23
2018-01-31T02:23:08.158Z,5.97
2018-01-31T02:25:35.845Z,4.53
2018-01-31T02:28:03.849Z,8.07
2018-01-31T02:30:31.720Z,5.47
2018-01-31T02:32:59.331Z,7.37
2018-01-31T02:35:26.961Z,9.60
2018-01-31T02:37:54.574Z,12.77
2018-01-31T02:40:22.161Z,14.03
2018-01-31T02:42:49.802Z,39.13
2018-01-31T02:45:17.520Z,40.10
2018-01-31T02:47:45.049Z,21.37
2018-01-31T02:50:12.578Z,11.13
2018-01-31T02:52:40.150Z,9.93
2018-01-31T02:55:07.675Z,9.30
2018-01-31T02:57:35.252Z,36.87
2018-01-31T03:00:02.933Z,21.33
2018-01-31T03:02:30.643Z,14.23
2018-01-31T03:04:58.181Z,15.10
2018-01-31T03:07:25.696Z,10.30
2018-01-31T03:09:53.406Z,9.27
2018-01-31T03:12:21.013Z,13.97
2018-01-31T03:14:48.537Z,6.50
2018-01-31T03:17:16.953Z,46.93
2018-01-31T03:19:44.480Z,16.27
2018-01-31T03:22:13.093Z,10.23
2018-01-31T03:24:40.613Z,10.07
2018-01-31T03:27:08.226Z,9.37
2018-01-31T03:29:35.765Z,16.63
2018-01-31T03:32:03.366Z,11.63
2018-01-31T03:34:30.940Z,9.47
2018-01-31T03:36:58.457Z,6.50
2018-01-31T03:39:26.225Z,8.80
2018-01-31T03:41:53.760Z,40.63
2018-01-31T03:44:21.562Z,13.00
2018-01-31T03:46:49.137Z,8.17
2018-01-31T03:49:16.661Z,11.37
2018-01-31T03:51:44.414Z,14.40
2018-01-31T03:54:12.099Z,15.47
2018-01-31T03:56:39.621Z,7.73
2018-01-31T03:59:07.193Z,8.90
2018-01-31T04:01:34.985Z,7.23
2018-01-31T04:04:02.662Z,6.53
2018-01-31T04:06:30.207Z,8.13
2018-01-31T04:08:57.838Z,7.17
2018-01-31T04:11:25.457Z,7.23
2018-01-31T04:13:53.077Z,9.93
2018-01-31T04:16:20.637Z,7.77
2018-01-31T04:18:48.194Z,6.60
2018-01-31T04:21:15.909Z,7.10
2018-01-31T04:23:43.485Z,9.17
2018-01-31T04:26:11.265Z,8.43
2018-01-31T04:28:38.826Z,8.80
2018-01-31T04:31:06.601Z,6.77
2018-01-31T04:33:34.141Z,8.07
2018-01-31T04:36:01.705Z,12.97
2018-01-31T04:38:29.354Z,10.37
2018-01-31T04:40:56.869Z,11.63
2018-01-31T04:43:24.590Z,514.77
2018-01-31T04:45:52.300Z,419.53
2018-01-31T04:48:20.026Z,199.70
2018-01-31T04:50:47.635Z,165.77
2018-01-31T04:53:15.173Z,101.07
2018-01-31T04:55:42.779Z,111.43
2018-01-31T04:58:10.614Z,27.57
2018-01-31T05:00:38.318Z,31.43
2018-01-31T05:03:05.925Z,56.23
2018-01-31T05:05:33.646Z,54.37
2018-01-31T05:08:01.471Z,30.50
2018-01-31T05:10:29.054Z,25.30
2018-01-31T05:12:56.697Z,26.50
2018-01-31T05:15:24.261Z,24.83
2018-01-31T05:17:51.837Z,20.90
2018-01-31T05:20:19.660Z,23.87
2018-01-31T05:22:47.207Z,22.00
2018-01-31T05:25:14.804Z,20.03
2018-01-31T05:27:42.429Z,11.87
2018-01-31T05:30:10.085Z,15.27
2018-01-31T05:32:37.617Z,13.77
2018-01-31T05:35:05.258Z,23.67
2018-01-31T05:37:32.809Z,30.33
2018-01-31T05:40:00.340Z,12.90
2018-01-31T05:42:28.120Z,14.83
2018-01-31T05:44:55.812Z,16.33
2018-01-31T05:47:23.349Z,21.43
2018-01-31T05:49:50.965Z,21.63
2018-01-31T05:52:18.585Z,19.27
2018-01-31T05:54:46.403Z,13.63
2018-01-31T05:57:13.937Z,28.83
2018-01-31T05:59:41.550Z,49.97
2018-01-31T06:02:09.158Z,36.83
2018-01-31T06:04:36.737Z,28.77
2018-01-31T06:07:04.494Z,30.57
2018-01-31T06:09:32.247Z,27.67
2018-01-31T06:11:59.793Z,14.17
2018-01-31T06:14:27.445Z,42.00
2018-01-31T06:16:55.214Z,42.33
2018-01-31T06:19:23.014Z,25.47
2018-01-31T06:21:50.541Z,35.97
2018-01-31T06:24:18.065Z,42.07
2018-01-31T06:26:45.735Z,39.93
2018-01-31T06:29:13.408Z,39.93
2018-01-31T06:31:41.284Z,75.97
2018-01-31T06:34:08.825Z,102.50
2018-01-31T06:36:36.407Z,95.67
2018-01-31T06:39:04.233Z,43.67
2018-01-31T06:41:31.765Z,48.53
2018-01-31T06:43:59.469Z,47.97
2018-01-31T06:46:27.081Z,120.47
2018-01-31T06:48:54.706Z,52.57
2018-01-31T06:51:22.302Z,36.03
2018-01-31T06:53:50.236Z,38.10
2018-01-31T06:56:17.964Z,46.87
2018-01-31T06:58:45.671Z,38.10
2018-01-31T07:01:13.233Z,25.20
2018-01-31T07:03:40.770Z,33.63
2018-01-31T07:06:08.298Z,38.47
2018-01-31T07:08:35.889Z,26.63
2018-01-31T07:11:03.704Z,29.17
2018-01-31T07:13:31.243Z,28.07
2018-01-31T07:15:58.781Z,22.07
2018-01-31T07:18:26.310Z,51.20
2018-01-31T07:20:53.942Z,63.77
2018-01-31T07:23:21.466Z,17.53
2018-01-31T07:25:48.997Z,12.47
2018-01-31T07:28:16.792Z,19.37
2018-01-31T07:30:44.410Z,10.60
2018-01-31T07:33:12.037Z,22.10
2018-01-31T07:35:39.737Z,32.60
2018-01-31T07:38:07.556Z,32.63
2018-01-31T07:40:35.383Z,35.53
2018-01-31T07:43:02.945Z,34.10
2018-01-31T07:45:30.509Z,25.03
2018-01-31T07:47:58.683Z,27.03
2018-01-31T07:50:26.358Z,23.37
2018-01-31T07:52:53.966Z,23.80
2018-01-31T07:55:22.029Z,20.03
2018-01-31T07:57:50.220Z,25.23
2018-01-31T08:00:17.824Z,23.30
2018-01-31T08:02:45.410Z,25.03
2018-01-31T08:05:13.268Z,22.77
2018-01-31T08:07:41.127Z,23.77
2018-01-31T08:10:09.006Z,19.73
2018-01-31T08:12:37.116Z,21.03
2018-01-31T08:15:04.877Z,23.90
2018-01-31T08:17:32.553Z,16.40
2018-01-31T08:20:00.214Z,18.23
2018-01-31T08:22:27.968Z,18.07
2018-01-31T08:24:55.619Z,27.07
2018-01-31T08:27:23.224Z,15.27
2018-01-31T08:29:51.153Z,13.90
2018-01-31T08:32:18.834Z,14.43
2018-01-31T08:34:46.372Z,17.00
2018-01-31T08:37:14.007Z,10.53
2018-01-31T08:39:41.581Z,20.70
2018-01-31T08:42:09.516Z,18.00
2018-01-31T08:44:37.262Z,15.70
2018-01-31T08:47:05.179Z,10.53
2018-01-31T08:49:32.894Z,8.30
2018-01-31T08:52:00.521Z,4.63
2018-01-31T08:54:28.125Z,9.10
2018-01-31T08:56:55.771Z,10.83
2018-01-31T08:59:23.317Z,5.57
2018-01-31T09:01:50.860Z,5.47
2018-01-31T09:04:18.503Z,5.30
2018-01-31T09:06:46.118Z,8.13
2018-01-31T09:09:13.888Z,3.80
2018-01-31T09:11:41.821Z,4.10
2018-01-31T09:14:09.457Z,3.93
2018-01-31T09:16:37.319Z,3.17
2018-01-31T09:19:05.237Z,3.73
2018-01-31T09:21:32.814Z,3.97
2018-01-31T09:24:00.442Z,1.90
2018-01-31T09:26:28.037Z,5.47
2018-01-31T09:28:55.578Z,3.37
2018-01-31T09:31:23.105Z,2.07
2018-01-31T09:33:50.637Z,2.17
2018-01-31T09:36:19.242Z,1.43
2018-01-31T09:38:46.957Z,2.20
2018-01-31T09:41:14.481Z,3.63
2018-01-31T09:43:42.222Z,4.37
2018-01-31T09:46:10.010Z,2.13
2018-01-31T09:48:37.537Z,2.97
2018-01-31T09:51:05.189Z,3.77
2018-01-31T09:53:32.735Z,1.73
2018-01-31T09:56:00.325Z,3.70
2018-01-31T09:58:27.853Z,5.03
2018-01-31T10:00:55.523Z,4.53
2018-01-31T10:03:23.558Z,2.87
2018-01-31T10:05:51.159Z,1.40
2018-01-31T10:08:18.706Z,3.37
2018-01-31T10:10:46.325Z,7.37
2018-01-31T10:13:13.841Z,8.83
2018-01-31T10:15:41.522Z,7.10
2018-01-31T10:18:09.051Z,4.37
2018-01-31T10:20:36.582Z,2.40
2018-01-31T10:23:04.130Z,4.87
2018-01-31T10:25:31.655Z,6.90
2018-01-31T10:27:59.431Z,3.40
2018-01-31T10:30:26.958Z,1.67
2018-01-31T10:32:54.658Z,14.80
2018-01-31T10:35:26.151Z,1.50
2018-01-31T10:37:53.872Z,5.20
2018-01-31T10:40:21.898Z,2.27
2018-01-31T10:42:49.431Z,1.80
2018-01-31T10:45:17.159Z,1.57
2018-01-31T10:47:45.638Z,1.40
2018-01-31T10:50:13.171Z,2.80
2018-01-31T10:52:40.745Z,1.40
2018-01-31T10:57:36.253Z,2.77
2018-01-31T11:00:03.833Z,3.37
2018-01-31T11:02:31.588Z,2.70
2018-01-31T11:04:59.235Z,2.87
2018-01-31T11:07:26.762Z,1.30
2018-01-31T11:09:54.452Z,5.37
2018-01-31T11:12:22.058Z,2.37
2018-01-31T11:14:49.779Z,5.20
2018-01-31T11:17:18.499Z,10.87
2018-01-31T11:19:46.058Z,7.30
2018-01-31T11:22:13.735Z,3.70
2018-01-31T11:24:41.285Z,5.33
2018-01-31T11:27:08.814Z,2.23
2018-01-31T11:29:36.378Z,2.77
2018-01-31T11:32:03.967Z,2.60
2018-01-31T11:34:31.489Z,3.67
2018-01-31T11:36:59.026Z,3.67
2018-01-31T11:39:26.658Z,2.20
2018-01-31T11:41:54.238Z,3.73
2018-01-31T11:44:21.798Z,2.43
2018-01-31T11:46:49.321Z,1.90
2018-01-31T11:49:16.910Z,2.87
2018-01-31T11:51:44.434Z,2.17
2018-01-31T11:54:12.013Z,3.97
2018-01-31T11:56:39.545Z,3.43
2018-01-31T11:59:07.249Z,4.17
2018-01-31T12:01:35.018Z,8.17
2018-01-31T12:04:02.550Z,16.47
2018-01-31T12:06:30.126Z,2.30
2018-01-31T12:08:57.907Z,2.23
2018-01-31T12:11:25.431Z,2.90
2018-01-31T12:14:17.624Z,2.23
2018-01-31T12:16:57.157Z,2.20
2018-01-31T12:19:41.389Z,1.80
2018-01-31T12:22:20.742Z,4.50
2018-01-31T12:25:00.248Z,3.90
2018-01-31T12:27:39.944Z,3.47
2018-01-31T12:30:19.102Z,9.90
2018-01-31T12:32:58.555Z,4.27
2018-01-31T12:35:37.986Z,3.67
2018-01-31T12:38:17.398Z,6.53
2018-01-31T12:40:44.402Z,3.60
2018-01-31T12:43:12.285Z,6.23
2018-01-31T12:45:39.452Z,5.07
2018-01-31T12:51:14.918Z,4.10
2018-01-31T12:53:54.324Z,4.00
2018-01-31T12:56:27.878Z,2.50
2018-01-31T12:59:07.431Z,4.20
2018-01-31T13:01:55.577Z,3.00
2018-01-31T13:04:35.079Z,2.37
2018-01-31T13:07:14.394Z,4.93
2018-01-31T13:09:53.697Z,3.07
2018-01-31T13:12:33.061Z,2.53
2018-01-31T13:15:12.200Z,5.00
2018-01-31T13:17:51.526Z,3.27
2018-01-31T13:20:30.874Z,2.03
2018-01-31T13:23:00.166Z,3.40
2018-01-31T13:25:39.660Z,3.63
2018-01-31T13:28:24.862Z,12.27
2018-01-31T13:34:11.627Z,9.93
2018-01-31T13:36:50.862Z,19.10
2018-01-31T13:39:30.210Z,3.90
2018-01-31T13:42:09.699Z,4.83
2018-01-31T13:44:49.156Z,5.13
2018-01-31T13:47:28.275Z,6.50
2018-01-31T13:53:10.282Z,5.00
2018-01-31T13:55:49.690Z,5.37
2018-01-31T13:58:29.045Z,5.83
2018-01-31T14:04:09.518Z,6.80
2018-01-31T14:06:48.861Z,4.70
2018-01-31T14:12:33.390Z,9.20
2018-01-31T14:15:12.653Z,6.80
2018-01-31T14:17:52.205Z,10.00
2018-01-31T14:20:30.631Z,11.43
2018-01-31T14:23:10.082Z,18.43
2018-01-31T14:25:49.586Z,26.50
2018-01-31T14:28:28.895Z,26.87
2018-01-31T14:34:13.070Z,74.30
2018-01-31T14:36:40.074Z,40.73
2018-01-31T14:39:07.077Z,26.37
2018-01-31T14:41:34.206Z,13.30
2018-01-31T14:44:01.262Z,11.57
2018-01-31T14:46:28.254Z,15.00
2018-01-31T14:48:55.301Z,12.70
2018-01-31T14:51:22.301Z,17.53
2018-01-31T14:53:49.316Z,15.00
2018-01-31T14:56:16.489Z,14.57
2018-01-31T14:58:43.478Z,11.27
2018-01-31T15:01:10.517Z,18.33
2018-01-31T15:03:37.509Z,13.27
2018-01-31T15:06:04.558Z,12.20
2018-01-31T15:08:31.546Z,15.80
2018-01-31T15:10:58.542Z,55.87
2018-01-31T15:13:25.548Z,38.43
2018-01-31T15:15:52.623Z,43.27
2018-01-31T15:18:19.625Z,69.90
2018-01-31T15:20:46.618Z,20.53
2018-01-31T15:23:13.822Z,13.50
2018-01-31T15:25:40.871Z,143.07
2018-01-31T15:28:08.056Z,85.47
2018-01-31T15:30:35.058Z,391.20
2018-01-31T15:33:02.118Z,143.53
2018-01-31T15:35:29.146Z,67.87
2018-01-31T15:37:56.139Z,63.40
2018-01-31T15:40:23.376Z,47.93
2018-01-31T15:42:50.367Z,41.70
2018-01-31T15:45:17.607Z,62.93
2018-01-31T15:47:44.612Z,138.97
2018-01-31T15:50:11.659Z,398.70
2018-01-31T15:52:38.883Z,284.30
2018-01-31T15:55:05.886Z,178.53
2018-01-31T15:57:32.890Z,177.43
2018-01-31T15:59:59.890Z,236.00
2018-01-31T16:02:27.078Z,471.63
2018-01-31T16:04:54.079Z,668.33
2018-01-31T16:07:21.250Z,673.67
2018-01-31T16:09:48.375Z,279.23
2018-01-31T16:12:15.367Z,166.20
2018-01-31T16:14:42.366Z,113.07
2018-01-31T16:17:09.952Z,141.20
2018-01-31T16:19:49.375Z,118.40
2018-01-31T16:22:17.094Z,81.47
2018-01-31T16:24:44.654Z,67.83
2018-01-31T16:27:23.154Z,109.47
2018-01-31T16:30:03.303Z,106.40
2018-01-31T16:32:42.757Z,157.77
2018-01-31T16:35:10.303Z,230.80
2018-01-31T16:37:37.837Z,295.00
2018-01-31T16:40:05.434Z,490.30
2018-01-31T16:42:33.159Z,252.57
2018-01-31T16:45:00.725Z,226.80
2018-01-31T16:47:28.407Z,351.23
2018-01-31T16:49:55.992Z,220.17
2018-01-31T16:52:23.536Z,143.80
2018-01-31T16:54:51.073Z,119.67
2018-01-31T16:57:18.805Z,113.37
2018-01-31T16:59:46.342Z,165.33
2018-01-31T17:02:13.878Z,234.33
2018-01-31T17:04:41.445Z,402.33
2018-01-31T17:07:09.010Z,110.63
2018-01-31T17:09:36.606Z,139.03
2018-01-31T17:12:04.164Z,117.03
2018-01-31T17:14:31.786Z,134.57
2018-01-31T17:16:59.317Z,180.10
2018-01-31T17:19:27.029Z,524.67
2018-01-31T17:21:54.573Z,594.03
2018-01-31T17:24:22.114Z,684.57
2018-01-31T17:26:49.658Z,775.83
2018-01-31T17:29:17.205Z,1014.20
2018-01-31T17:31:44.919Z,649.07
2018-01-31T17:34:12.634Z,369.93
2018-01-31T17:36:40.174Z,261.67
2018-01-31T17:39:07.773Z,204.80
2018-01-31T17:41:35.386Z,207.17
2018-01-31T17:44:02.942Z,353.50
2018-01-31T17:46:30.626Z,120.03
2018-01-31T17:48:58.439Z,230.30
2018-01-31T17:51:25.978Z,316.17
2018-01-31T17:53:53.514Z,250.10
2018-01-31T17:56:21.187Z,302.53
2018-01-31T17:58:48.722Z,270.40
2018-01-31T18:01:16.294Z,187.70
2018-01-31T18:03:43.832Z,175.00
2018-01-31T18:06:11.571Z,171.47
2018-01-31T18:08:39.102Z,102.30
2018-01-31T18:11:06.666Z,191.03
2018-01-31T18:13:34.417Z,150.03
2018-01-31T18:16:01.959Z,149.73
2018-01-31T18:18:29.554Z,205.77
2018-01-31T18:20:57.162Z,281.80
2018-01-31T18:23:24.703Z,230.67
2018-01-31T18:25:52.414Z,284.97
2018-01-31T18:28:20.019Z,196.70
2018-01-31T18:30:47.561Z,315.27
2018-01-31T18:33:15.099Z,210.07
2018-01-31T18:35:42.878Z,210.97
2018-01-31T18:38:10.498Z,105.97
2018-01-31T18:40:38.108Z,161.00
2018-01-31T18:43:05.649Z,161.37
2018-01-31T18:45:33.191Z,208.30
2018-01-31T18:48:00.783Z,146.80
2018-01-31T18:50:28.322Z,275.70
2018-01-31T18:52:56.105Z,378.80
2018-01-31T18:55:23.658Z,386.03
2018-01-31T18:57:51.198Z,232.87
2018-01-31T19:00:18.749Z,216.63
2018-01-31T19:02:46.373Z,208.67
2018-01-31T19:05:13.982Z,204.50
2018-01-31T19:07:41.709Z,215.40
2018-01-31T19:10:09.246Z,225.03
2018-01-31T19:12:36.865Z,245.70
2018-01-31T19:15:04.399Z,201.57
2018-01-31T19:17:31.959Z,147.60
2018-01-31T19:19:59.502Z,182.37
2018-01-31T19:22:27.085Z,182.43
2018-01-31T19:24:54.622Z,185.53
2018-01-31T19:27:22.150Z,156.90
2018-01-31T19:29:49.690Z,169.03
2018-01-31T19:32:17.394Z,285.73
2018-01-31T19:34:44.962Z,203.47
2018-01-31T19:37:12.550Z,218.83
2018-01-31T19:39:40.134Z,206.10
2018-01-31T19:42:07.666Z,183.40
2018-01-31T19:44:35.315Z,135.47
2018-01-31T19:47:02.857Z,124.37
2018-01-31T19:49:30.419Z,172.83
2018-01-31T19:51:57.958Z,199.57
2018-01-31T19:54:25.486Z,176.03
2018-01-31T19:56:53.078Z,109.43
2018-01-31T19:59:20.613Z,203.53
2018-01-31T20:01:48.238Z,185.57
2018-01-31T20:04:15.967Z,240.97
2018-01-31T20:06:43.507Z,154.47
2018-01-31T20:09:11.293Z,156.70
2018-01-31T20:11:38.914Z,147.73
2018-01-31T20:14:06.497Z,117.07
2018-01-31T20:16:34.086Z,135.67
2018-01-31T20:19:01.617Z,97.50
2018-01-31T20:21:29.160Z,102.20
2018-01-31T20:23:56.733Z,122.00
2018-01-31T20:26:24.418Z,133.13
2018-01-31T20:28:52.235Z,195.07
2018-01-31T20:31:19.794Z,106.90
2018-01-31T20:33:47.334Z,106.33
2018-01-31T20:36:15.089Z,116.87
2018-01-31T20:38:42.722Z,118.53
2018-01-31T20:41:10.258Z,121.97
2018-01-31T20:43:38.044Z,137.67
2018-01-31T20:46:05.770Z,157.37
2018-01-31T20:48:33.309Z,142.43
2018-01-31T20:51:00.850Z,97.10
2018-01-31T20:53:28.615Z,95.30
2018-01-31T20:55:56.206Z,103.53
2018-01-31T20:58:23.845Z,105.30
2018-01-31T21:00:51.475Z,112.97
2018-01-31T21:03:19.026Z,96.70
2018-01-31T21:05:46.806Z,83.83
2018-01-31T21:08:14.373Z,112.40
2018-01-31T21:10:41.910Z,131.73
2018-01-31T21:13:09.494Z,95.80
2018-01-31T21:15:37.046Z,98.30
2018-01-31T21:18:04.579Z,103.10
2018-01-31T21:20:32.125Z,117.87
2018-01-31T21:22:59.829Z,74.93
2018-01-31T21:25:27.373Z,86.80
2018-01-31T21:27:55.072Z,70.40
2018-01-31T21:30:22.734Z,132.87
2018-01-31T21:32:50.262Z,119.07
2018-01-31T21:35:17.786Z,98.47
2018-01-31T21:37:45.346Z,96.73
2018-01-31T21:40:13.060Z,88.60
2018-01-31T21:42:40.693Z,86.47
2018-01-31T21:45:08.284Z,83.97
2018-01-31T21:47:35.814Z,103.10
2018-01-31T21:50:03.747Z,93.10
2018-01-31T21:52:31.308Z,122.57
2018-01-31T21:54:58.951Z,82.37
2018-01-31T22:00:28.281Z,103.00
2018-01-31T22:02:55.807Z,79.37
2018-01-31T22:05:23.389Z,64.13
2018-01-31T22:07:50.924Z,82.63
2018-01-31T22:10:18.587Z,63.90
2018-01-31T22:12:46.130Z,63.53
2018-01-31T22:15:13.924Z,58.73
2018-01-31T22:17:41.462Z,74.73
2018-01-31T22:20:08.994Z,79.00
2018-01-31T22:22:36.611Z,88.33
2018-01-31T22:25:04.294Z,66.83
2018-01-31T22:27:31.835Z,95.90
2018-01-31T22:29:59.531Z,75.30
2018-01-31T22:32:27.351Z,89.47
2018-01-31T22:34:54.961Z,83.33
2018-01-31T22:37:22.634Z,103.50
2018-01-31T22:39:50.165Z,125.80
2018-01-31T22:42:17.706Z,110.93
2018-01-31T22:44:45.237Z,108.70
2018-01-31T22:47:13.003Z,102.70
2018-01-31T22:49:40.526Z,95.87
2018-01-31T22:52:08.055Z,90.13
2018-01-31T22:54:35.763Z,102.50
2018-01-31T22:57:03.490Z,88.10
2018-01-31T22:59:31.186Z,82.07
2018-01-31T23:01:58.876Z,75.57
2018-01-31T23:04:26.404Z,74.37
2018-01-31T23:06:53.938Z,67.67
2018-01-31T23:09:21.469Z,76.50
2018-01-31T23:11:49.081Z,106.73
2018-01-31T23:14:22.418Z,134.13
2018-01-31T23:16:50.038Z,65.67
2018-01-31T23:19:17.565Z,58.43
2018-01-31T23:21:45.158Z,57.27
2018-01-31T23:24:12.766Z,54.27
2018-01-31T23:26:40.358Z,59.03
2018-01-31T23:29:07.906Z,86.33
2018-01-31T23:31:35.454Z,55.30
2018-01-31T23:34:02.985Z,47.80
2018-01-31T23:36:30.514Z,101.27
2018-01-31T23:38:58.055Z,142.87
2018-01-31T23:41:25.586Z,109.47
2018-01-31T23:43:53.158Z,65.40
2018-01-31T23:46:20.686Z,92.47
2018-01-31T23:48:48.440Z,91.77
2018-01-31T23:51:17.233Z,180.20
2018-01-31T23:53:44.942Z,101.50
2018-01-31T23:56:12.497Z,409.17
2018-01-31T23:58:40.086Z,178.43
